sensor_id;sensor_type;location;lat;lon;timestamp;P1;durP1;ratioP1;P2;durP2;ratioP2
59880;SDS011;45751;51.380;10.326;2023-08-21T00:01:48;10.05;;;5.35;;
59880;SDS011;45751;51.380;10.326;2023-08-21T00:04:15;12.48;;;5.63;;
59880;SDS011;45751;51.380;10.326;2023-08-21T00:06:42;11.45;;;4.55;;
59880;SDS011;45751;51.380;10.326;2023-08-21T00:09:09;13.40;;;6.03;;
59880;SDS011;45751;51.380;10.326;2023-08-21T00:11:36;11.65;;;5.15;;
59880;SDS011;45751;51.380;10.326;2023-08-21T00:14:03;11.05;;;5.38;;
59880;SDS011;45751;51.380;10.326;2023-08-21T00:16:30;12.27;;;5.65;;
59880;SDS011;45751;51.380;10.326;2023-08-21T00:18:57;10.90;;;5.65;;
59880;SDS011;45751;51.380;10.326;2023-08-21T00:21:24;11.20;;;5.60;;
59880;SDS011;45751;51.380;10.326;2023-08-21T00:23:51;10.25;;;5.15;;
59880;SDS011;45751;51.380;10.326;2023-08-21T00:26:17;11.73;;;5.20;;
59880;SDS011;45751;51.380;10.326;2023-08-21T00:28:44;11.13;;;5.70;;
59880;SDS011;45751;51.380;10.326;2023-08-21T00:31:11;12.43;;;5.20;;
59880;SDS011;45751;51.380;10.326;2023-08-21T00:33:39;10.20;;;5.13;;
59880;SDS011;45751;51.380;10.326;2023-08-21T00:36:06;13.95;;;5.38;;
59880;SDS011;45751;51.380;10.326;2023-08-21T00:38:33;11.77;;;5.55;;
59880;SDS011;45751;51.380;10.326;2023-08-21T00:41:00;12.85;;;5.40;;
59880;SDS011;45751;51.380;10.326;2023-08-21T00:43:27;9.73;;;5.03;;
59880;SDS011;45751;51.380;10.326;2023-08-21T00:45:54;12.82;;;5.60;;
59880;SDS011;45751;51.380;10.326;2023-08-21T00:48:21;10.65;;;5.65;;
59880;SDS011;45751;51.380;10.326;2023-08-21T00:50:48;10.68;;;5.00;;
59880;SDS011;45751;51.380;10.326;2023-08-21T00:53:16;11.70;;;5.80;;
59880;SDS011;45751;51.380;10.326;2023-08-21T00:55:43;11.43;;;5.18;;
59880;SDS011;45751;51.380;10.326;2023-08-21T00:58:10;8.90;;;4.40;;
59880;SDS011;45751;51.380;10.326;2023-08-21T01:00:39;12.95;;;5.90;;
59880;SDS011;45751;51.380;10.326;2023-08-21T01:03:11;10.18;;;5.10;;
59880;SDS011;45751;51.380;10.326;2023-08-21T01:05:38;9.90;;;5.70;;
59880;SDS011;45751;51.380;10.326;2023-08-21T01:08:06;10.40;;;4.80;;
59880;SDS011;45751;51.380;10.326;2023-08-21T01:10:50;13.30;;;6.22;;
59880;SDS011;45751;51.380;10.326;2023-08-21T01:13:43;10.48;;;5.55;;
59880;SDS011;45751;51.380;10.326;2023-08-21T01:16:21;12.00;;;5.80;;
59880;SDS011;45751;51.380;10.326;2023-08-21T01:18:50;9.27;;;4.90;;
59880;SDS011;45751;51.380;10.326;2023-08-21T01:21:20;11.95;;;5.60;;
59880;SDS011;45751;51.380;10.326;2023-08-21T01:23:47;10.75;;;5.30;;
59880;SDS011;45751;51.380;10.326;2023-08-21T01:26:14;12.38;;;5.63;;
59880;SDS011;45751;51.380;10.326;2023-08-21T01:28:41;10.32;;;5.18;;
59880;SDS011;45751;51.380;10.326;2023-08-21T01:31:15;10.10;;;4.97;;
59880;SDS011;45751;51.380;10.326;2023-08-21T01:33:51;10.23;;;5.13;;
59880;SDS011;45751;51.380;10.326;2023-08-21T01:36:23;10.00;;;4.85;;
59880;SDS011;45751;51.380;10.326;2023-08-21T01:38:51;8.65;;;4.53;;
59880;SDS011;45751;51.380;10.326;2023-08-21T01:41:18;10.00;;;5.22;;
59880;SDS011;45751;51.380;10.326;2023-08-21T01:43:45;10.23;;;4.65;;
59880;SDS011;45751;51.380;10.326;2023-08-21T01:46:12;13.75;;;5.03;;
59880;SDS011;45751;51.380;10.326;2023-08-21T01:48:39;10.50;;;5.03;;
59880;SDS011;45751;51.380;10.326;2023-08-21T01:51:06;10.13;;;5.38;;
59880;SDS011;45751;51.380;10.326;2023-08-21T01:53:32;10.65;;;4.97;;
59880;SDS011;45751;51.380;10.326;2023-08-21T01:56:00;12.07;;;5.20;;
59880;SDS011;45751;51.380;10.326;2023-08-21T01:58:27;10.00;;;4.80;;
59880;SDS011;45751;51.380;10.326;2023-08-21T02:00:54;11.82;;;5.78;;
59880;SDS011;45751;51.380;10.326;2023-08-21T02:03:21;12.20;;;5.88;;
59880;SDS011;45751;51.380;10.326;2023-08-21T02:05:48;10.43;;;5.20;;
59880;SDS011;45751;51.380;10.326;2023-08-21T02:08:15;10.07;;;5.10;;
59880;SDS011;45751;51.380;10.326;2023-08-21T02:10:49;11.20;;;5.28;;
59880;SDS011;45751;51.380;10.326;2023-08-21T02:13:17;9.90;;;5.28;;
59880;SDS011;45751;51.380;10.326;2023-08-21T02:15:45;9.15;;;4.35;;
59880;SDS011;45751;51.380;10.326;2023-08-21T02:18:12;10.85;;;5.03;;
59880;SDS011;45751;51.380;10.326;2023-08-21T02:20:39;13.90;;;5.22;;
59880;SDS011;45751;51.380;10.326;2023-08-21T02:23:08;9.70;;;5.28;;
59880;SDS011;45751;51.380;10.326;2023-08-21T02:25:35;9.85;;;5.20;;
59880;SDS011;45751;51.380;10.326;2023-08-21T02:28:02;11.55;;;5.97;;
59880;SDS011;45751;51.380;10.326;2023-08-21T02:30:31;12.80;;;5.85;;
59880;SDS011;45751;51.380;10.326;2023-08-21T02:32:58;14.45;;;5.22;;
59880;SDS011;45751;51.380;10.326;2023-08-21T02:35:25;10.23;;;5.60;;
59880;SDS011;45751;51.380;10.326;2023-08-21T02:37:52;10.45;;;5.38;;
59880;SDS011;45751;51.380;10.326;2023-08-21T02:40:19;11.82;;;5.07;;
59880;SDS011;45751;51.380;10.326;2023-08-21T02:42:46;11.05;;;5.10;;
59880;SDS011;45751;51.380;10.326;2023-08-21T02:45:12;10.68;;;5.30;;
59880;SDS011;45751;51.380;10.326;2023-08-21T02:47:40;11.73;;;5.32;;
59880;SDS011;45751;51.380;10.326;2023-08-21T02:50:08;12.68;;;5.82;;
59880;SDS011;45751;51.380;10.326;2023-08-21T02:52:37;11.60;;;5.93;;
59880;SDS011;45751;51.380;10.326;2023-08-21T02:55:04;15.90;;;6.03;;
59880;SDS011;45751;51.380;10.326;2023-08-21T02:57:32;10.13;;;5.35;;
59880;SDS011;45751;51.380;10.326;2023-08-21T02:59:59;12.63;;;5.60;;
59880;SDS011;45751;51.380;10.326;2023-08-21T03:02:26;9.77;;;4.90;;
59880;SDS011;45751;51.380;10.326;2023-08-21T03:04:53;10.77;;;5.07;;
59880;SDS011;45751;51.380;10.326;2023-08-21T03:07:20;9.90;;;5.07;;
59880;SDS011;45751;51.380;10.326;2023-08-21T03:09:47;11.15;;;5.40;;
59880;SDS011;45751;51.380;10.326;2023-08-21T03:12:15;12.45;;;5.72;;
59880;SDS011;45751;51.380;10.326;2023-08-21T03:14:42;12.18;;;5.72;;
59880;SDS011;45751;51.380;10.326;2023-08-21T03:17:10;11.55;;;5.90;;
59880;SDS011;45751;51.380;10.326;2023-08-21T03:19:36;13.65;;;5.78;;
59880;SDS011;45751;51.380;10.326;2023-08-21T03:22:04;11.82;;;5.35;;
59880;SDS011;45751;51.380;10.326;2023-08-21T03:24:32;10.98;;;4.80;;
59880;SDS011;45751;51.380;10.326;2023-08-21T03:26:59;9.73;;;5.28;;
59880;SDS011;45751;51.380;10.326;2023-08-21T03:29:26;10.57;;;5.22;;
59880;SDS011;45751;51.380;10.326;2023-08-21T03:31:53;12.10;;;5.82;;
59880;SDS011;45751;51.380;10.326;2023-08-21T03:34:25;11.70;;;5.63;;
59880;SDS011;45751;51.380;10.326;2023-08-21T03:36:56;14.20;;;5.57;;
59880;SDS011;45751;51.380;10.326;2023-08-21T03:39:26;15.43;;;6.28;;
59880;SDS011;45751;51.380;10.326;2023-08-21T03:41:53;10.30;;;5.32;;
59880;SDS011;45751;51.380;10.326;2023-08-21T03:44:20;10.73;;;5.63;;
59880;SDS011;45751;51.380;10.326;2023-08-21T03:46:47;10.63;;;5.68;;
59880;SDS011;45751;51.380;10.326;2023-08-21T03:49:14;10.98;;;5.63;;
59880;SDS011;45751;51.380;10.326;2023-08-21T03:51:40;11.07;;;6.00;;
59880;SDS011;45751;51.380;10.326;2023-08-21T03:54:08;10.57;;;5.80;;
59880;SDS011;45751;51.380;10.326;2023-08-21T03:56:37;10.88;;;5.75;;
59880;SDS011;45751;51.380;10.326;2023-08-21T03:59:04;14.63;;;6.18;;
59880;SDS011;45751;51.380;10.326;2023-08-21T04:01:31;14.98;;;6.80;;
59880;SDS011;45751;51.380;10.326;2023-08-21T04:03:58;11.38;;;6.35;;
59880;SDS011;45751;51.380;10.326;2023-08-21T04:06:28;12.32;;;5.93;;
59880;SDS011;45751;51.380;10.326;2023-08-21T04:08:55;14.45;;;5.80;;
59880;SDS011;45751;51.380;10.326;2023-08-21T04:11:22;15.13;;;5.97;;
59880;SDS011;45751;51.380;10.326;2023-08-21T04:13:49;11.60;;;5.10;;
59880;SDS011;45751;51.380;10.326;2023-08-21T04:16:16;10.82;;;5.85;;
59880;SDS011;45751;51.380;10.326;2023-08-21T04:18:44;9.55;;;5.20;;
59880;SDS011;45751;51.380;10.326;2023-08-21T04:21:11;14.38;;;6.18;;
59880;SDS011;45751;51.380;10.326;2023-08-21T04:23:38;12.02;;;6.88;;
59880;SDS011;45751;51.380;10.326;2023-08-21T04:26:04;11.60;;;5.47;;
59880;SDS011;45751;51.380;10.326;2023-08-21T04:28:33;14.55;;;6.55;;
59880;SDS011;45751;51.380;10.326;2023-08-21T04:31:04;10.35;;;5.82;;
59880;SDS011;45751;51.380;10.326;2023-08-21T04:33:34;11.85;;;6.15;;
59880;SDS011;45751;51.380;10.326;2023-08-21T04:36:02;10.82;;;5.63;;
59880;SDS011;45751;51.380;10.326;2023-08-21T04:38:30;14.45;;;5.95;;
59880;SDS011;45751;51.380;10.326;2023-08-21T04:41:05;10.23;;;5.25;;
59880;SDS011;45751;51.380;10.326;2023-08-21T04:43:34;12.00;;;5.95;;
59880;SDS011;45751;51.380;10.326;2023-08-21T04:46:03;10.32;;;5.30;;
59880;SDS011;45751;51.380;10.326;2023-08-21T04:48:33;10.33;;;6.03;;
59880;SDS011;45751;51.380;10.326;2023-08-21T04:51:00;11.70;;;6.10;;
59880;SDS011;45751;51.380;10.326;2023-08-21T04:53:28;11.73;;;6.18;;
59880;SDS011;45751;51.380;10.326;2023-08-21T04:56:00;12.02;;;6.45;;
59880;SDS011;45751;51.380;10.326;2023-08-21T04:58:29;11.05;;;6.07;;
59880;SDS011;45751;51.380;10.326;2023-08-21T05:00:56;10.95;;;6.07;;
59880;SDS011;45751;51.380;10.326;2023-08-21T05:03:23;12.65;;;6.45;;
59880;SDS011;45751;51.380;10.326;2023-08-21T05:05:54;10.60;;;5.97;;
59880;SDS011;45751;51.380;10.326;2023-08-21T05:08:23;12.65;;;6.53;;
59880;SDS011;45751;51.380;10.326;2023-08-21T05:10:55;11.02;;;5.55;;
59880;SDS011;45751;51.380;10.326;2023-08-21T05:13:29;13.52;;;5.47;;
59880;SDS011;45751;51.380;10.326;2023-08-21T05:15:58;13.20;;;6.22;;
59880;SDS011;45751;51.380;10.326;2023-08-21T05:18:30;12.85;;;6.40;;
59880;SDS011;45751;51.380;10.326;2023-08-21T05:20:56;11.48;;;6.45;;
59880;SDS011;45751;51.380;10.326;2023-08-21T05:23:24;10.80;;;5.72;;
59880;SDS011;45751;51.380;10.326;2023-08-21T05:25:55;12.13;;;5.85;;
59880;SDS011;45751;51.380;10.326;2023-08-21T05:28:22;12.23;;;6.40;;
59880;SDS011;45751;51.380;10.326;2023-08-21T05:30:49;13.30;;;6.85;;
59880;SDS011;45751;51.380;10.326;2023-08-21T05:33:18;13.25;;;6.95;;
59880;SDS011;45751;51.380;10.326;2023-08-21T05:35:47;16.52;;;7.00;;
59880;SDS011;45751;51.380;10.326;2023-08-21T05:38:14;15.63;;;7.40;;
59880;SDS011;45751;51.380;10.326;2023-08-21T05:40:41;15.63;;;7.22;;
59880;SDS011;45751;51.380;10.326;2023-08-21T05:43:09;13.85;;;7.05;;
59880;SDS011;45751;51.380;10.326;2023-08-21T05:45:39;15.00;;;7.05;;
59880;SDS011;45751;51.380;10.326;2023-08-21T05:48:07;16.17;;;7.32;;
59880;SDS011;45751;51.380;10.326;2023-08-21T05:50:34;13.52;;;7.30;;
59880;SDS011;45751;51.380;10.326;2023-08-21T05:53:03;13.45;;;7.90;;
59880;SDS011;45751;51.380;10.326;2023-08-21T05:55:31;11.30;;;6.40;;
59880;SDS011;45751;51.380;10.326;2023-08-21T05:57:59;12.77;;;6.85;;
59880;SDS011;45751;51.380;10.326;2023-08-21T06:00:26;13.43;;;6.70;;
59880;SDS011;45751;51.380;10.326;2023-08-21T06:02:53;14.80;;;8.20;;
59880;SDS011;45751;51.380;10.326;2023-08-21T06:05:40;13.70;;;6.82;;
59880;SDS011;45751;51.380;10.326;2023-08-21T06:08:07;11.45;;;6.95;;
59880;SDS011;45751;51.380;10.326;2023-08-21T06:10:35;11.48;;;6.20;;
59880;SDS011;45751;51.380;10.326;2023-08-21T06:13:02;13.65;;;6.60;;
59880;SDS011;45751;51.380;10.326;2023-08-21T06:15:29;11.68;;;6.82;;
59880;SDS011;45751;51.380;10.326;2023-08-21T06:17:58;12.38;;;6.45;;
59880;SDS011;45751;51.380;10.326;2023-08-21T06:20:25;13.48;;;6.90;;
59880;SDS011;45751;51.380;10.326;2023-08-21T06:22:52;14.35;;;7.18;;
59880;SDS011;45751;51.380;10.326;2023-08-21T06:25:19;13.27;;;7.10;;
59880;SDS011;45751;51.380;10.326;2023-08-21T06:27:46;17.42;;;7.10;;
59880;SDS011;45751;51.380;10.326;2023-08-21T06:30:25;11.68;;;6.47;;
59880;SDS011;45751;51.380;10.326;2023-08-21T06:32:53;12.43;;;6.25;;
59880;SDS011;45751;51.380;10.326;2023-08-21T06:35:20;11.27;;;6.85;;
59880;SDS011;45751;51.380;10.326;2023-08-21T06:37:47;12.13;;;6.57;;
59880;SDS011;45751;51.380;10.326;2023-08-21T06:40:15;13.85;;;6.47;;
59880;SDS011;45751;51.380;10.326;2023-08-21T06:42:42;13.88;;;6.28;;
59880;SDS011;45751;51.380;10.326;2023-08-21T06:45:09;12.52;;;7.00;;
59880;SDS011;45751;51.380;10.326;2023-08-21T06:47:36;15.55;;;6.50;;
59880;SDS011;45751;51.380;10.326;2023-08-21T06:50:04;15.98;;;7.15;;
59880;SDS011;45751;51.380;10.326;2023-08-21T06:52:31;16.33;;;7.05;;
59880;SDS011;45751;51.380;10.326;2023-08-21T06:54:58;12.25;;;6.90;;
59880;SDS011;45751;51.380;10.326;2023-08-21T06:57:25;16.13;;;6.57;;
59880;SDS011;45751;51.380;10.326;2023-08-21T06:59:51;14.50;;;6.75;;
59880;SDS011;45751;51.380;10.326;2023-08-21T07:02:18;12.27;;;6.57;;
59880;SDS011;45751;51.380;10.326;2023-08-21T07:04:45;11.63;;;6.05;;
59880;SDS011;45751;51.380;10.326;2023-08-21T07:07:12;16.50;;;7.20;;
59880;SDS011;45751;51.380;10.326;2023-08-21T07:09:39;12.45;;;6.75;;
59880;SDS011;45751;51.380;10.326;2023-08-21T07:12:06;12.18;;;7.47;;
59880;SDS011;45751;51.380;10.326;2023-08-21T07:14:34;13.00;;;6.28;;
59880;SDS011;45751;51.380;10.326;2023-08-21T07:17:00;12.90;;;6.40;;
59880;SDS011;45751;51.380;10.326;2023-08-21T07:19:27;10.98;;;6.38;;
59880;SDS011;45751;51.380;10.326;2023-08-21T07:21:54;11.75;;;5.90;;
59880;SDS011;45751;51.380;10.326;2023-08-21T07:24:21;11.57;;;6.47;;
59880;SDS011;45751;51.380;10.326;2023-08-21T07:26:48;13.25;;;6.05;;
59880;SDS011;45751;51.380;10.326;2023-08-21T07:29:15;12.45;;;6.07;;
59880;SDS011;45751;51.380;10.326;2023-08-21T07:31:42;12.00;;;6.35;;
59880;SDS011;45751;51.380;10.326;2023-08-21T07:34:09;11.98;;;5.22;;
59880;SDS011;45751;51.380;10.326;2023-08-21T07:36:35;10.80;;;6.13;;
59880;SDS011;45751;51.380;10.326;2023-08-21T07:39:02;12.50;;;5.30;;
59880;SDS011;45751;51.380;10.326;2023-08-21T07:41:30;9.95;;;5.63;;
59880;SDS011;45751;51.380;10.326;2023-08-21T07:43:57;14.35;;;6.50;;
59880;SDS011;45751;51.380;10.326;2023-08-21T07:46:24;10.18;;;5.35;;
59880;SDS011;45751;51.380;10.326;2023-08-21T07:48:52;12.88;;;6.70;;
59880;SDS011;45751;51.380;10.326;2023-08-21T07:51:19;11.85;;;6.18;;
59880;SDS011;45751;51.380;10.326;2023-08-21T07:53:46;14.38;;;6.75;;
59880;SDS011;45751;51.380;10.326;2023-08-21T07:56:13;11.77;;;5.97;;
59880;SDS011;45751;51.380;10.326;2023-08-21T07:58:40;12.48;;;5.70;;
59880;SDS011;45751;51.380;10.326;2023-08-21T08:01:07;14.20;;;6.03;;
59880;SDS011;45751;51.380;10.326;2023-08-21T08:03:34;10.93;;;5.85;;
59880;SDS011;45751;51.380;10.326;2023-08-21T08:06:01;10.57;;;5.47;;
59880;SDS011;45751;51.380;10.326;2023-08-21T08:08:28;11.15;;;6.55;;
59880;SDS011;45751;51.380;10.326;2023-08-21T08:10:55;11.57;;;6.43;;
59880;SDS011;45751;51.380;10.326;2023-08-21T08:13:26;12.30;;;6.20;;
59880;SDS011;45751;51.380;10.326;2023-08-21T08:15:53;12.27;;;5.82;;
59880;SDS011;45751;51.380;10.326;2023-08-21T08:18:20;12.13;;;5.80;;
59880;SDS011;45751;51.380;10.326;2023-08-21T08:20:47;12.15;;;5.80;;
59880;SDS011;45751;51.380;10.326;2023-08-21T08:23:14;14.35;;;6.30;;
59880;SDS011;45751;51.380;10.326;2023-08-21T08:25:41;11.45;;;6.30;;
59880;SDS011;45751;51.380;10.326;2023-08-21T08:28:07;12.48;;;6.22;;
59880;SDS011;45751;51.380;10.326;2023-08-21T08:30:34;11.25;;;5.90;;
59880;SDS011;45751;51.380;10.326;2023-08-21T08:33:01;11.23;;;6.35;;
59880;SDS011;45751;51.380;10.326;2023-08-21T08:35:28;11.80;;;5.80;;
59880;SDS011;45751;51.380;10.326;2023-08-21T08:37:55;11.55;;;6.45;;
59880;SDS011;45751;51.380;10.326;2023-08-21T08:40:22;14.50;;;6.82;;
59880;SDS011;45751;51.380;10.326;2023-08-21T08:42:49;10.02;;;5.82;;
59880;SDS011;45751;51.380;10.326;2023-08-21T08:45:16;13.30;;;6.32;;
59880;SDS011;45751;51.380;10.326;2023-08-21T08:47:59;12.00;;;6.53;;
59880;SDS011;45751;51.380;10.326;2023-08-21T08:50:29;12.70;;;6.32;;
59880;SDS011;45751;51.380;10.326;2023-08-21T08:52:57;11.80;;;6.50;;
59880;SDS011;45751;51.380;10.326;2023-08-21T08:55:40;10.85;;;6.15;;
59880;SDS011;45751;51.380;10.326;2023-08-21T08:58:07;11.57;;;6.22;;
59880;SDS011;45751;51.380;10.326;2023-08-21T09:00:34;12.10;;;5.75;;
59880;SDS011;45751;51.380;10.326;2023-08-21T09:03:01;11.20;;;6.00;;
59880;SDS011;45751;51.380;10.326;2023-08-21T09:05:29;10.93;;;5.65;;
59880;SDS011;45751;51.380;10.326;2023-08-21T09:08:03;14.35;;;6.43;;
59880;SDS011;45751;51.380;10.326;2023-08-21T09:10:30;11.32;;;5.78;;
59880;SDS011;45751;51.380;10.326;2023-08-21T09:12:57;10.70;;;5.97;;
59880;SDS011;45751;51.380;10.326;2023-08-21T09:15:28;10.10;;;5.40;;
59880;SDS011;45751;51.380;10.326;2023-08-21T09:18:08;11.07;;;5.63;;
59880;SDS011;45751;51.380;10.326;2023-08-21T09:20:36;14.63;;;5.30;;
59880;SDS011;45751;51.380;10.326;2023-08-21T09:23:04;12.85;;;5.22;;
59880;SDS011;45751;51.380;10.326;2023-08-21T09:25:37;12.70;;;5.40;;
59880;SDS011;45751;51.380;10.326;2023-08-21T09:28:08;8.73;;;4.97;;
59880;SDS011;45751;51.380;10.326;2023-08-21T09:30:51;9.90;;;5.15;;
59880;SDS011;45751;51.380;10.326;2023-08-21T09:33:20;10.10;;;5.28;;
59880;SDS011;45751;51.380;10.326;2023-08-21T09:35:48;9.90;;;5.03;;
59880;SDS011;45751;51.380;10.326;2023-08-21T09:38:17;10.48;;;5.10;;
59880;SDS011;45751;51.380;10.326;2023-08-21T09:40:54;9.98;;;5.07;;
59880;SDS011;45751;51.380;10.326;2023-08-21T09:43:22;13.23;;;5.22;;
59880;SDS011;45751;51.380;10.326;2023-08-21T09:45:52;9.10;;;5.10;;
59880;SDS011;45751;51.380;10.326;2023-08-21T09:48:22;9.60;;;5.00;;
59880;SDS011;45751;51.380;10.326;2023-08-21T09:50:53;9.40;;;4.95;;
59880;SDS011;45751;51.380;10.326;2023-08-21T09:53:22;10.82;;;5.00;;
59880;SDS011;45751;51.380;10.326;2023-08-21T09:55:53;9.55;;;5.05;;
59880;SDS011;45751;51.380;10.326;2023-08-21T09:58:22;10.73;;;4.72;;
59880;SDS011;45751;51.380;10.326;2023-08-21T10:00:49;10.52;;;5.30;;
59880;SDS011;45751;51.380;10.326;2023-08-21T10:03:19;11.10;;;5.20;;
59880;SDS011;45751;51.380;10.326;2023-08-21T10:05:47;10.88;;;5.57;;
59880;SDS011;45751;51.380;10.326;2023-08-21T10:08:15;18.45;;;10.90;;
59880;SDS011;45751;51.380;10.326;2023-08-21T10:10:46;15.00;;;9.00;;
59880;SDS011;45751;51.380;10.326;2023-08-21T10:13:13;12.52;;;6.90;;
59880;SDS011;45751;51.380;10.326;2023-08-21T10:15:41;10.07;;;5.65;;
59880;SDS011;45751;51.380;10.326;2023-08-21T10:18:22;11.02;;;5.45;;
59880;SDS011;45751;51.380;10.326;2023-08-21T10:20:51;13.70;;;6.25;;
59880;SDS011;45751;51.380;10.326;2023-08-21T10:23:37;9.80;;;5.57;;
59880;SDS011;45751;51.380;10.326;2023-08-21T10:26:11;10.35;;;5.38;;
59880;SDS011;45751;51.380;10.326;2023-08-21T10:28:42;10.23;;;5.80;;
59880;SDS011;45751;51.380;10.326;2023-08-21T10:31:26;9.57;;;4.90;;
59880;SDS011;45751;51.380;10.326;2023-08-21T10:33:57;10.75;;;5.18;;
59880;SDS011;45751;51.380;10.326;2023-08-21T10:42:01;12.07;;;5.93;;
59880;SDS011;45751;51.380;10.326;2023-08-21T10:47:16;11.60;;;5.95;;
59880;SDS011;45751;51.380;10.326;2023-08-21T10:49:44;11.82;;;7.13;;
59880;SDS011;45751;51.380;10.326;2023-08-21T10:52:12;17.40;;;8.93;;
59880;SDS011;45751;51.380;10.326;2023-08-21T10:54:46;12.00;;;6.80;;
59880;SDS011;45751;51.380;10.326;2023-08-21T10:57:14;11.10;;;5.57;;
59880;SDS011;45751;51.380;10.326;2023-08-21T10:59:54;10.45;;;6.45;;
59880;SDS011;45751;51.380;10.326;2023-08-21T11:02:31;9.25;;;5.57;;
59880;SDS011;45751;51.380;10.326;2023-08-21T11:04:59;11.50;;;5.88;;
59880;SDS011;45751;51.380;10.326;2023-08-21T11:07:27;13.85;;;6.38;;
59880;SDS011;45751;51.380;10.326;2023-08-21T11:09:55;11.70;;;6.07;;
59880;SDS011;45751;51.380;10.326;2023-08-21T11:12:22;9.25;;;5.15;;
59880;SDS011;45751;51.380;10.326;2023-08-21T11:14:50;10.45;;;6.15;;
59880;SDS011;45751;51.380;10.326;2023-08-21T11:17:17;11.63;;;6.25;;
59880;SDS011;45751;51.380;10.326;2023-08-21T11:19:49;10.52;;;5.57;;
59880;SDS011;45751;51.380;10.326;2023-08-21T11:22:17;12.50;;;5.38;;
59880;SDS011;45751;51.380;10.326;2023-08-21T11:24:48;10.40;;;5.68;;
59880;SDS011;45751;51.380;10.326;2023-08-21T11:27:17;9.73;;;5.30;;
59880;SDS011;45751;51.380;10.326;2023-08-21T11:29:47;10.95;;;5.25;;
59880;SDS011;45751;51.380;10.326;2023-08-21T11:32:20;10.00;;;5.43;;
59880;SDS011;45751;51.380;10.326;2023-08-21T11:34:55;11.27;;;5.50;;
59880;SDS011;45751;51.380;10.326;2023-08-21T11:37:23;10.02;;;5.28;;
59880;SDS011;45751;51.380;10.326;2023-08-21T11:39:53;10.82;;;5.38;;
59880;SDS011;45751;51.380;10.326;2023-08-21T11:42:23;10.40;;;5.47;;
59880;SDS011;45751;51.380;10.326;2023-08-21T11:44:59;9.05;;;5.07;;
59880;SDS011;45751;51.380;10.326;2023-08-21T11:47:30;10.40;;;6.00;;
59880;SDS011;45751;51.380;10.326;2023-08-21T11:50:06;9.98;;;5.30;;
59880;SDS011;45751;51.380;10.326;2023-08-21T11:52:36;9.35;;;5.03;;
59880;SDS011;45751;51.380;10.326;2023-08-21T11:55:11;9.93;;;5.22;;
59880;SDS011;45751;51.380;10.326;2023-08-21T11:57:48;10.77;;;5.30;;
59880;SDS011;45751;51.380;10.326;2023-08-21T12:00:16;9.65;;;5.20;;
59880;SDS011;45751;51.380;10.326;2023-08-21T12:02:55;10.15;;;5.80;;
59880;SDS011;45751;51.380;10.326;2023-08-21T12:05:23;11.57;;;4.78;;
59880;SDS011;45751;51.380;10.326;2023-08-21T12:07:50;9.48;;;4.80;;
59880;SDS011;45751;51.380;10.326;2023-08-21T12:10:26;10.30;;;5.78;;
59880;SDS011;45751;51.380;10.326;2023-08-21T12:12:54;12.80;;;7.55;;
59880;SDS011;45751;51.380;10.326;2023-08-21T12:15:21;10.13;;;5.57;;
59880;SDS011;45751;51.380;10.326;2023-08-21T12:17:48;9.60;;;4.88;;
59880;SDS011;45751;51.380;10.326;2023-08-21T12:20:15;8.95;;;4.75;;
59880;SDS011;45751;51.380;10.326;2023-08-21T12:22:43;7.68;;;4.15;;
59880;SDS011;45751;51.380;10.326;2023-08-21T12:25:10;10.02;;;4.78;;
59880;SDS011;45751;51.380;10.326;2023-08-21T12:27:37;9.32;;;4.63;;
59880;SDS011;45751;51.380;10.326;2023-08-21T12:30:05;13.80;;;5.07;;
59880;SDS011;45751;51.380;10.326;2023-08-21T12:32:33;9.35;;;5.20;;
59880;SDS011;45751;51.380;10.326;2023-08-21T12:35:00;8.75;;;4.93;;
59880;SDS011;45751;51.380;10.326;2023-08-21T12:37:27;9.48;;;4.95;;
59880;SDS011;45751;51.380;10.326;2023-08-21T12:39:54;9.50;;;4.85;;
59880;SDS011;45751;51.380;10.326;2023-08-21T12:42:21;9.73;;;4.90;;
59880;SDS011;45751;51.380;10.326;2023-08-21T12:44:48;9.93;;;5.32;;
59880;SDS011;45751;51.380;10.326;2023-08-21T12:47:15;8.98;;;4.10;;
59880;SDS011;45751;51.380;10.326;2023-08-21T12:49:42;10.77;;;6.80;;
59880;SDS011;45751;51.380;10.326;2023-08-21T12:52:09;10.63;;;5.82;;
59880;SDS011;45751;51.380;10.326;2023-08-21T12:54:38;10.50;;;5.45;;
59880;SDS011;45751;51.380;10.326;2023-08-21T12:57:05;10.38;;;5.22;;
59880;SDS011;45751;51.380;10.326;2023-08-21T12:59:34;9.25;;;4.63;;
59880;SDS011;45751;51.380;10.326;2023-08-21T13:02:01;8.57;;;4.40;;
59880;SDS011;45751;51.380;10.326;2023-08-21T13:04:28;9.27;;;4.22;;
59880;SDS011;45751;51.380;10.326;2023-08-21T13:06:56;8.68;;;4.40;;
59880;SDS011;45751;51.380;10.326;2023-08-21T13:09:24;8.88;;;4.43;;
59880;SDS011;45751;51.380;10.326;2023-08-21T13:11:51;11.07;;;4.53;;
59880;SDS011;45751;51.380;10.326;2023-08-21T13:14:20;10.00;;;5.18;;
59880;SDS011;45751;51.380;10.326;2023-08-21T13:16:47;8.43;;;4.03;;
59880;SDS011;45751;51.380;10.326;2023-08-21T13:19:13;9.10;;;4.70;;
59880;SDS011;45751;51.380;10.326;2023-08-21T13:21:40;9.48;;;4.00;;
59880;SDS011;45751;51.380;10.326;2023-08-21T13:24:07;11.07;;;4.00;;
59880;SDS011;45751;51.380;10.326;2023-08-21T13:26:34;9.77;;;4.18;;
59880;SDS011;45751;51.380;10.326;2023-08-21T13:29:01;10.77;;;4.38;;
59880;SDS011;45751;51.380;10.326;2023-08-21T13:31:28;9.75;;;3.95;;
59880;SDS011;45751;51.380;10.326;2023-08-21T13:33:55;8.23;;;4.18;;
59880;SDS011;45751;51.380;10.326;2023-08-21T13:36:22;8.38;;;4.18;;
59880;SDS011;45751;51.380;10.326;2023-08-21T13:38:51;7.93;;;4.20;;
59880;SDS011;45751;51.380;10.326;2023-08-21T13:41:18;8.30;;;3.88;;
59880;SDS011;45751;51.380;10.326;2023-08-21T13:43:45;8.82;;;4.13;;
59880;SDS011;45751;51.380;10.326;2023-08-21T13:46:16;8.02;;;4.20;;
59880;SDS011;45751;51.380;10.326;2023-08-21T13:48:43;8.05;;;3.90;;
59880;SDS011;45751;51.380;10.326;2023-08-21T13:51:10;9.63;;;4.35;;
59880;SDS011;45751;51.380;10.326;2023-08-21T13:53:37;8.25;;;4.05;;
59880;SDS011;45751;51.380;10.326;2023-08-21T13:56:04;8.52;;;4.28;;
59880;SDS011;45751;51.380;10.326;2023-08-21T13:58:30;7.82;;;3.60;;
59880;SDS011;45751;51.380;10.326;2023-08-21T14:00:57;7.45;;;3.50;;
59880;SDS011;45751;51.380;10.326;2023-08-21T14:03:24;9.65;;;3.95;;
59880;SDS011;45751;51.380;10.326;2023-08-21T14:05:51;8.75;;;3.85;;
59880;SDS011;45751;51.380;10.326;2023-08-21T14:08:18;9.13;;;3.67;;
59880;SDS011;45751;51.380;10.326;2023-08-21T14:10:45;9.52;;;4.05;;
59880;SDS011;45751;51.380;10.326;2023-08-21T14:13:12;7.10;;;3.65;;
59880;SDS011;45751;51.380;10.326;2023-08-21T14:15:39;8.55;;;3.58;;
59880;SDS011;45751;51.380;10.326;2023-08-21T14:18:06;8.02;;;3.60;;
59880;SDS011;45751;51.380;10.326;2023-08-21T14:20:33;8.32;;;3.65;;
59880;SDS011;45751;51.380;10.326;2023-08-21T14:23:00;9.35;;;4.10;;
59880;SDS011;45751;51.380;10.326;2023-08-21T14:25:27;8.52;;;3.95;;
59880;SDS011;45751;51.380;10.326;2023-08-21T14:27:53;7.72;;;3.88;;
59880;SDS011;45751;51.380;10.326;2023-08-21T14:30:21;7.53;;;3.60;;
59880;SDS011;45751;51.380;10.326;2023-08-21T14:32:48;8.90;;;3.75;;
59880;SDS011;45751;51.380;10.326;2023-08-21T14:35:14;7.95;;;3.80;;
59880;SDS011;45751;51.380;10.326;2023-08-21T14:37:41;8.30;;;4.00;;
59880;SDS011;45751;51.380;10.326;2023-08-21T14:40:08;9.98;;;4.18;;